Easthampton, MA (01027)

6:30 PM EDT on July 29, 2016 (GMT -0400)
Florence, MA | | Change Station

Elev 360 ft 42.29 °N, 72.71 °W | Updated 5 seconds ago

Overcast
Overcast
75.0 °F
Feels Like 76 °F
N
8.0
Wind Variable Wind from North
Gusts 16.0 mph

Today
High -- | Low -- °F
--% Chance of Precip.
Yesterday
High -- | Low -- °F
Precip. -- in
Pressure 29.86 in
Visibility 5.0 miles
Clouds Mostly Cloudy 4500 ft
Mostly Cloudy 5000 ft
Mostly Cloudy 7500 ft
Heat Index 76 °F
Dew Point 68 °F
Humidity 78%
Rainfall 0.04 in
Snow Depth Not available.
5:41 AM 8:12 PM
Waning Crescent, 18% visible
SPECI KBAF 292224Z 02011G21KT 5SM RA BKN045 BKN050 BKN075 24/19 A2986 RMK AO2 WSHFT 2204 RAB19 PRESRR P0003 T02440194
Pressure 29.86 in
Visibility 5.0 miles
Clouds Mostly Cloudy 4500 ft
Mostly Cloudy 5000 ft
Mostly Cloudy 7500 ft
Heat Index 76 °F
Dew Point 68 °F
Humidity 78%
Rainfall 0.04 in
Snow Depth Not available.
5:41 AM 8:12 PM
Waning Crescent, 18% visible
SPECI KBAF 292224Z 02011G21KT 5SM RA BKN045 BKN050 BKN075 24/19 A2986 RMK AO2 WSHFT 2204 RAB19 PRESRR P0003 T02440194

10-Day Weather Forecast

Almanac

Astronomy

Jul. 29, 2016 Rise Set
Actual Time
Civil Twilight
Nautical Twilight
Astronomical Twilight
Moon
Length of Visible Light
Length of Day
Tomorrow will be .
, % of the Moon is Illuminated

Today's Extremes

State Highs State Lows

Community

WunderPhotos

Upload Photos

1,928,436 photos uploaded!

WunderBlog® & News

Nearby

Air Quality

  Air Quality AQ Index Pollutant
Not available.

Snow Depth

Station Depth Elevation

Earthquake Activity

City Distance Mag. Time & Date
Minimum magnitude displayed is 2.5.

Coastal Water Temperatures

Place Temperature

Stations

Nearby Weather Stations

Station Location Temp. Windchill Dew Point Humidity Wind Precip. Elev Updated Type
                   

Watches & Warnings

There are currently no watches in effect.